Time;durP1;ratioP1;P1;durP2;ratioP2;P2;SDS_P1;SDS_P2;PMS_P1;PMS_P2;Temp;Humidity;BMP_temperature;BMP_pressure;BME280_temperature;BME280_humidity;BME280_pressure;Samples;Min_cycle;Max_cycle;Signal;HPM_P1;HPM_P2
2024/01/20 00:04:34;;;;;;;16.80;9.90;;;;;;;-2.79;78.84;100826.61;214070;1267;61289;-74
2024/01/20 00:09:27;;;;;;;15.90;9.70;;;;;;;-2.77;78.90;100818.63;214067;1270;61787;-75
2024/01/20 00:14:34;;;;;;;18.10;10.80;;;;;;;-2.74;78.91;100818.45;214142;1268;61414;-75
2024/01/20 00:19:26;;;;;;;22.60;12.40;;;;;;;-2.70;79.07;100820.47;214035;1268;61968;-74
2024/01/20 00:24:19;;;;;;;28.90;12.90;;;;;;;-2.65;79.00;100815.35;214062;1271;61367;-74
2024/01/20 00:29:12;;;;;;;21.10;12.70;;;;;;;-2.61;78.97;100812.05;214144;1268;61377;-75
2024/01/20 00:34:06;;;;;;;19.30;10.40;;;;;;;-2.58;79.26;100811.09;214055;1268;65913;-75
2024/01/20 00:38:59;;;;;;;21.00;12.60;;;;;;;-2.55;79.07;100811.16;214106;1268;61265;-75
2024/01/20 00:43:52;;;;;;;23.10;12.60;;;;;;;-2.51;79.05;100803.48;214086;1268;61456;-75
2024/01/20 00:48:45;;;;;;;23.40;12.30;;;;;;;-2.47;79.05;100793.05;214086;1268;61297;-75
2024/01/20 00:53:37;;;;;;;32.70;15.40;;;;;;;-2.43;79.44;100794.19;214118;1268;61770;-75
2024/01/20 00:58:30;;;;;;;20.70;12.70;;;;;;;-2.40;79.46;100796.27;214098;1268;61275;-74
2024/01/20 01:03:23;;;;;;;20.10;13.00;;;;;;;-2.37;79.69;100793.09;214080;1268;61368;-75
2024/01/20 01:08:16;;;;;;;18.50;11.70;;;;;;;-2.33;79.79;100791.30;214118;1268;61255;-75
2024/01/20 01:13:09;;;;;;;28.10;14.30;;;;;;;-2.31;79.72;100791.15;214003;1268;61276;-74
2024/01/20 01:18:01;;;;;;;22.30;13.00;;;;;;;-2.28;79.92;100787.23;214135;1268;61428;-75
2024/01/20 01:22:54;;;;;;;24.40;13.50;;;;;;;-2.25;79.89;100773.30;214113;1268;61415;-74
2024/01/20 01:27:47;;;;;;;26.40;14.00;;;;;;;-2.24;79.99;100768.62;214075;1270;61231;-75
2024/01/20 01:32:40;;;;;;;21.30;12.90;;;;;;;-2.25;80.14;100757.02;214026;1272;61915;-75
2024/01/20 01:37:32;;;;;;;22.20;13.80;;;;;;;-2.23;80.44;100765.01;213934;1268;153411;-74
2024/01/20 01:42:25;;;;;;;22.60;13.30;;;;;;;-2.21;80.57;100761.73;214023;1270;74434;-75
2024/01/20 01:47:18;;;;;;;26.30;13.90;;;;;;;-2.16;80.60;100760.39;213988;1268;61296;-74
2024/01/20 01:52:11;;;;;;;20.90;12.80;;;;;;;-2.12;80.74;100770.16;214031;1268;61469;-75
2024/01/20 01:57:06;;;;;;;21.80;13.50;;;;;;;-2.08;80.86;100772.33;214112;1268;66236;-75
2024/01/20 02:01:59;;;;;;;22.10;13.90;;;;;;;-2.04;80.83;100782.95;214107;1268;61271;-75
2024/01/20 02:06:53;;;;;;;21.80;13.40;;;;;;;-2.00;81.04;100783.39;214098;1268;63759;-75
2024/01/20 02:11:47;;;;;;;20.60;11.70;;;;;;;-1.95;81.09;100793.44;214052;1268;72647;-75
2024/01/20 02:16:39;;;;;;;25.30;14.00;;;;;;;-1.90;81.35;100793.22;214160;1268;61275;-74
2024/01/20 02:21:34;;;;;;;24.20;15.80;;;;;;;-1.86;81.56;100782.44;214060;1268;61833;-74
2024/01/20 02:26:29;;;;;;;23.10;13.20;;;;;;;-1.81;81.64;100773.27;214134;1268;61277;-74
2024/01/20 02:31:22;;;;;;;29.40;15.80;;;;;;;-1.77;81.84;100774.42;214025;1268;73633;-74
2024/01/20 02:36:14;;;;;;;30.50;15.80;;;;;;;-1.73;81.90;100776.89;214007;1271;61255;-75
2024/01/20 02:41:07;;;;;;;29.70;14.70;;;;;;;-1.68;82.04;100776.20;214059;1268;61308;-75
2024/01/20 02:46:00;;;;;;;23.70;14.20;;;;;;;-1.64;82.03;100769.52;214167;1268;61267;-75
2024/01/20 02:50:53;;;;;;;27.10;16.20;;;;;;;-1.59;81.92;100752.33;214150;1268;61320;-74
2024/01/20 02:55:45;;;;;;;28.20;14.60;;;;;;;-1.55;81.92;100749.89;214113;1268;61278;-74
2024/01/20 03:00:38;;;;;;;27.90;14.70;;;;;;;-1.49;81.90;100751.73;214137;1270;61351;-75
2024/01/20 03:05:31;;;;;;;25.80;13.70;;;;;;;-1.44;81.78;100746.11;214153;1268;61325;-74
2024/01/20 03:10:24;;;;;;;28.10;14.90;;;;;;;-1.40;81.65;100748.09;214096;1268;61267;-74
2024/01/20 03:15:20;;;;;;;23.40;13.70;;;;;;;-1.37;81.70;100765.31;214084;1268;61251;-75
2024/01/20 03:20:13;;;;;;;27.50;15.30;;;;;;;-1.34;81.62;100763.83;214116;1268;61916;-75
2024/01/20 03:25:06;;;;;;;21.10;13.50;;;;;;;-1.30;81.48;100769.17;214059;1268;61396;-74
2024/01/20 03:29:59;;;;;;;22.30;13.40;;;;;;;-1.26;81.55;100771.63;214153;1268;61278;-74
2024/01/20 03:34:52;;;;;;;20.00;12.80;;;;;;;-1.24;81.38;100784.21;214030;1268;62311;-74
2024/01/20 03:39:45;;;;;;;25.30;14.00;;;;;;;-1.22;81.39;100784.52;214082;1268;61294;-74
2024/01/20 03:44:37;;;;;;;24.20;13.30;;;;;;;-1.19;81.29;100789.11;214122;1268;61370;-75
2024/01/20 03:49:30;;;;;;;26.80;13.70;;;;;;;-1.17;81.14;100782.75;214044;1268;61303;-75
2024/01/20 03:54:23;;;;;;;25.10;13.30;;;;;;;-1.16;81.19;100782.70;214094;1268;62242;-74
2024/01/20 03:59:16;;;;;;;19.80;11.50;;;;;;;-1.14;81.12;100783.95;214118;1268;61290;-75
2024/01/20 04:04:09;;;;;;;21.40;11.60;;;;;;;-1.13;81.16;100785.07;214099;1268;61235;-75
2024/01/20 04:09:03;;;;;;;18.10;10.50;;;;;;;-1.11;81.10;100776.69;214081;1268;61229;-74
2024/01/20 04:13:56;;;;;;;20.30;10.10;;;;;;;-1.09;81.11;100759.92;214032;1268;72597;-74
2024/01/20 04:18:49;;;;;;;18.50;10.60;;;;;;;-1.08;80.92;100760.70;214143;1268;61822;-75
2024/01/20 04:23:42;;;;;;;15.60;10.50;;;;;;;-1.08;81.12;100765.84;214179;1268;61783;-75
2024/01/20 04:28:35;;;;;;;18.40;9.00;;;;;;;-1.08;81.22;100763.42;214046;1268;61290;-74
2024/01/20 04:33:28;;;;;;;19.40;9.90;;;;;;;-1.08;81.16;100762.57;214120;1268;61283;-75
2024/01/20 04:38:21;;;;;;;15.00;10.60;;;;;;;-1.08;81.10;100763.27;214025;1268;61367;-75
2024/01/20 04:43:13;;;;;;;19.50;10.60;;;;;;;-1.06;81.19;100765.39;214015;1268;61361;-75
2024/01/20 04:48:06;;;;;;;20.20;10.40;;;;;;;-1.05;81.43;100768.36;214198;1268;61910;-75
2024/01/20 04:52:59;;;;;;;18.40;10.40;;;;;;;-1.06;81.86;100771.39;214227;1268;61360;-75
2024/01/20 04:57:52;;;;;;;18.70;10.30;;;;;;;-1.08;82.19;100769.73;214117;1268;61295;-74
2024/01/20 05:02:44;;;;;;;17.60;8.30;;;;;;;-1.12;82.40;100765.20;214093;1268;61479;-75
2024/01/20 05:07:37;;;;;;;17.10;9.60;;;;;;;-1.16;82.76;100766.36;214117;1268;61280;-74
2024/01/20 05:12:30;;;;;;;18.10;9.90;;;;;;;-1.19;83.06;100759.86;214188;1267;61273;-74
2024/01/20 05:17:23;;;;;;;18.70;10.90;;;;;;;-1.21;83.15;100761.27;214096;1267;64364;-74
2024/01/20 05:22:18;;;;;;;17.90;9.70;;;;;;;-1.22;83.49;100769.85;214093;1268;61275;-75
2024/01/20 05:27:11;;;;;;;20.70;10.90;;;;;;;-1.25;83.58;100770.81;214167;1268;61821;-74
2024/01/20 05:32:04;;;;;;;17.80;11.40;;;;;;;-1.28;83.77;100782.38;214169;1268;74511;-75
2024/01/20 05:36:57;;;;;;;18.80;10.30;;;;;;;-1.32;84.19;100786.52;214074;1268;61292;-75
2024/01/20 05:41:50;;;;;;;18.10;11.00;;;;;;;-1.34;84.27;100792.88;214167;1268;61268;-75
2024/01/20 05:46:43;;;;;;;17.50;9.60;;;;;;;-1.36;84.39;100784.60;214153;1268;61280;-75
2024/01/20 05:51:35;;;;;;;21.60;11.70;;;;;;;-1.37;84.65;100787.92;214174;1268;61354;-75
2024/01/20 05:56:28;;;;;;;17.90;10.80;;;;;;;-1.39;84.59;100787.83;214230;1268;61386;-75
2024/01/20 06:01:21;;;;;;;18.50;10.40;;;;;;;-1.39;84.60;100791.35;214061;1271;61281;-75
2024/01/20 06:06:14;;;;;;;18.70;9.90;;;;;;;-1.40;84.58;100793.17;214165;1268;61240;-75
2024/01/20 06:11:07;;;;;;;19.60;11.20;;;;;;;-1.42;84.64;100795.28;214082;1268;61308;-75
2024/01/20 06:15:59;;;;;;;19.60;10.80;;;;;;;-1.43;84.79;100796.52;214085;1268;61267;-75
2024/01/20 06:20:53;;;;;;;23.80;10.60;;;;;;;-1.45;84.86;100794.73;214158;1268;61373;-75
2024/01/20 06:25:45;;;;;;;18.00;11.20;;;;;;;-1.45;84.96;100807.96;214152;1272;61316;-75
2024/01/20 06:30:38;;;;;;;16.90;10.10;;;;;;;-1.45;84.95;100820.73;214102;1268;61427;-74
2024/01/20 06:35:31;;;;;;;17.70;10.60;;;;;;;-1.44;85.01;100824.85;214180;1268;61288;-75
2024/01/20 06:40:23;;;;;;;19.10;11.10;;;;;;;-1.43;84.99;100824.94;214082;1268;61264;-75
2024/01/20 06:45:16;;;;;;;19.10;11.90;;;;;;;-1.41;84.88;100827.09;214135;1272;61348;-75
2024/01/20 06:50:09;;;;;;;19.70;12.60;;;;;;;-1.38;84.91;100833.75;214123;1272;61294;-74
2024/01/20 06:55:02;;;;;;;15.60;10.80;;;;;;;-1.36;84.81;100837.98;214100;1270;73105;-75
2024/01/20 06:59:55;;;;;;;17.30;10.40;;;;;;;-1.34;84.73;100842.02;214106;1272;61283;-75
2024/01/20 07:04:47;;;;;;;22.30;12.20;;;;;;;-1.32;84.57;100844.20;214094;1268;61278;-75
2024/01/20 07:09:41;;;;;;;22.10;12.10;;;;;;;-1.29;84.44;100839.09;214159;1268;61388;-75
2024/01/20 07:14:34;;;;;;;17.60;10.60;;;;;;;-1.27;84.45;100842.52;214047;1270;61491;-75
2024/01/20 07:19:26;;;;;;;23.30;12.30;;;;;;;-1.26;84.26;100848.02;214095;1268;61293;-74
2024/01/20 07:24:19;;;;;;;14.50;11.00;;;;;;;-1.22;84.05;100843.86;214143;1270;61306;-74
2024/01/20 07:29:12;;;;;;;21.20;10.20;;;;;;;-1.19;83.98;100848.28;214056;1270;61293;-74
2024/01/20 07:34:05;;;;;;;15.60;10.30;;;;;;;-1.19;83.91;100853.60;214084;1268;61402;-74
2024/01/20 07:38:58;;;;;;;21.20;11.30;;;;;;;-1.17;83.83;100852.72;214119;1268;61396;-75
2024/01/20 07:43:51;;;;;;;16.10;10.90;;;;;;;-1.13;83.78;100855.34;214047;1271;61309;-74
2024/01/20 07:48:44;;;;;;;16.70;9.80;;;;;;;-1.06;83.61;100857.29;214026;1268;61306;-75
2024/01/20 07:53:37;;;;;;;16.30;8.90;;;;;;;-1.00;83.59;100859.23;214068;1268;62015;-73
2024/01/20 07:58:29;;;;;;;20.40;10.70;;;;;;;-0.97;83.18;100862.36;214104;1271;61267;-74
2024/01/20 08:03:22;;;;;;;17.40;11.10;;;;;;;-0.95;83.24;100868.45;214012;1272;61287;-74
2024/01/20 08:08:15;;;;;;;15.70;10.20;;;;;;;-0.90;83.18;100874.37;214030;1271;61429;-73
2024/01/20 08:13:08;;;;;;;22.70;12.40;;;;;;;-0.88;83.16;100884.67;214003;1268;61434;-73
2024/01/20 08:18:01;;;;;;;16.50;10.00;;;;;;;-0.88;83.27;100882.47;214063;1272;61278;-74
2024/01/20 08:22:54;;;;;;;21.50;11.60;;;;;;;-0.88;83.03;100894.92;213990;1268;61351;-74
2024/01/20 08:27:46;;;;;;;14.70;10.60;;;;;;;-0.85;82.78;100896.48;214071;1268;61291;-74
2024/01/20 08:32:41;;;;;;;15.30;10.10;;;;;;;-0.84;82.58;100899.42;214106;1272;61376;-74
2024/01/20 08:37:34;;;;;;;15.00;9.70;;;;;;;-0.80;82.63;100902.92;214034;1269;61296;-73
2024/01/20 08:42:27;;;;;;;21.60;11.00;;;;;;;-0.75;82.58;100902.05;214036;1268;61881;-74
2024/01/20 08:47:19;;;;;;;19.30;10.60;;;;;;;-0.71;82.34;100901.30;214008;1270;62011;-74
2024/01/20 08:52:12;;;;;;;19.70;11.10;;;;;;;-0.69;82.31;100905.15;214004;1270;61291;-74
2024/01/20 08:57:05;;;;;;;17.80;11.50;;;;;;;-0.66;82.05;100904.14;214076;1268;61345;-74
2024/01/20 09:01:58;;;;;;;19.50;11.10;;;;;;;-0.62;82.09;100907.48;213903;1273;64471;-73
2024/01/20 09:06:51;;;;;;;18.20;11.50;;;;;;;-0.59;82.09;100916.71;213970;1268;61324;-74
2024/01/20 09:11:44;;;;;;;19.50;10.90;;;;;;;-0.54;81.97;100907.30;213973;1268;61290;-73
2024/01/20 09:16:37;;;;;;;16.90;11.70;;;;;;;-0.52;81.98;100906.61;214029;1272;61306;-74
2024/01/20 09:21:30;;;;;;;16.00;9.70;;;;;;;-0.47;81.81;100905.38;214002;1268;61929;-74
2024/01/20 09:26:23;;;;;;;15.40;10.60;;;;;;;-0.42;81.67;100905.86;213965;1268;61256;-74
2024/01/20 09:31:16;;;;;;;15.70;9.90;;;;;;;-0.41;81.49;100898.98;214096;1271;61326;-74
2024/01/20 09:36:09;;;;;;;15.10;10.50;;;;;;;-0.37;81.47;100897.14;214005;1273;61422;-74
2024/01/20 09:41:01;;;;;;;15.60;9.80;;;;;;;-0.35;81.37;100891.33;213984;1271;61319;-74
2024/01/20 09:45:55;;;;;;;20.30;10.60;;;;;;;-0.32;81.31;100889.13;214011;1270;61288;-74
2024/01/20 09:50:49;;;;;;;15.80;9.90;;;;;;;-0.26;81.23;100885.75;213978;1272;61244;-74
2024/01/20 09:55:43;;;;;;;15.00;9.70;;;;;;;-0.12;81.05;100888.66;214059;1268;74435;-74
2024/01/20 10:00:36;;;;;;;16.90;10.40;;;;;;;-0.06;80.86;100875.63;214076;1272;71926;-74
2024/01/20 10:05:33;;;;;;;16.20;10.10;;;;;;;-0.03;80.57;100876.33;213995;1272;61278;-74
2024/01/20 10:10:26;;;;;;;17.60;10.90;;;;;;;0.09;80.63;100875.69;214198;1268;66794;-74
2024/01/20 10:15:26;;;;;;;21.70;11.10;;;;;;;0.14;80.35;100865.59;214007;1272;61291;-74
2024/01/20 10:20:31;;;;;;;17.90;10.60;;;;;;;0.16;80.37;100870.80;214188;1270;73969;-74
2024/01/20 10:25:24;;;;;;;21.50;9.80;;;;;;;0.18;80.38;100861.40;214044;1270;71500;-75
2024/01/20 10:30:18;;;;;;;15.50;10.60;;;;;;;0.16;80.06;100870.95;214006;1272;61300;-75
2024/01/20 10:35:13;;;;;;;14.40;9.50;;;;;;;0.13;80.02;100881.57;213994;1270;67071;-73
2024/01/20 10:40:11;;;;;;;17.00;10.20;;;;;;;0.13;80.29;100874.05;214041;1270;61262;-74
2024/01/20 10:45:09;;;;;;;20.50;10.40;;;;;;;0.16;79.87;100872.68;214100;1270;73421;-74
2024/01/20 10:50:07;;;;;;;16.80;10.80;;;;;;;0.23;79.91;100864.05;214035;1268;71477;-74
2024/01/20 10:55:01;;;;;;;18.00;10.60;;;;;;;0.31;79.44;100864.92;214108;1271;61241;-74
2024/01/20 10:59:56;;;;;;;18.90;11.30;;;;;;;0.34;79.27;100865.95;213826;1269;67586;-75
2024/01/20 11:04:49;;;;;;;19.80;11.70;;;;;;;0.41;79.29;100869.60;214058;1271;61319;-74
2024/01/20 11:09:42;;;;;;;16.60;10.70;;;;;;;0.41;78.77;100872.31;213986;1270;61271;-75
2024/01/20 11:14:35;;;;;;;20.00;11.00;;;;;;;0.40;79.01;100871.38;214047;1272;61354;-75
2024/01/20 11:19:30;;;;;;;18.80;12.50;;;;;;;0.42;78.68;100872.39;214192;1271;61297;-76
2024/01/20 11:24:43;;;;;;;15.70;12.00;;;;;;;0.38;78.74;100861.56;214096;1271;67267;-75
2024/01/20 11:29:36;;;;;;;20.10;11.10;;;;;;;0.33;78.79;100863.49;213996;1272;61381;-74
2024/01/20 11:34:29;;;;;;;20.60;13.50;;;;;;;0.31;78.84;100856.54;214027;1270;61286;-75
2024/01/20 11:39:22;;;;;;;18.10;11.00;;;;;;;0.29;78.87;100862.21;214006;1268;71856;-75
2024/01/20 11:44:20;;;;;;;21.60;12.40;;;;;;;0.34;78.55;100848.37;214126;1270;61283;-75
2024/01/20 11:49:13;;;;;;;19.80;11.90;;;;;;;0.48;78.43;100837.42;214122;1270;65673;-75
2024/01/20 11:54:06;;;;;;;20.40;11.20;;;;;;;0.63;78.07;100836.94;214008;1271;61374;-75
2024/01/20 11:59:01;;;;;;;14.80;10.80;;;;;;;0.71;78.39;100834.87;214016;1272;73366;-75
2024/01/20 12:03:54;;;;;;;16.30;10.90;;;;;;;0.75;78.58;100828.27;213889;1269;61280;-74
2024/01/20 12:08:47;;;;;;;18.20;12.50;;;;;;;0.75;78.02;100831.19;214184;1270;61288;-74
2024/01/20 12:13:40;;;;;;;14.90;9.20;;;;;;;0.72;78.10;100829.48;214060;1268;61312;-74
2024/01/20 12:18:33;;;;;;;18.60;11.30;;;;;;;0.70;78.25;100824.74;214017;1270;62968;-74
2024/01/20 12:23:26;;;;;;;17.60;10.10;;;;;;;0.72;77.66;100816.98;213919;1268;61293;-74
2024/01/20 12:28:20;;;;;;;17.50;11.70;;;;;;;0.73;77.82;100822.72;213925;1269;72638;-73
2024/01/20 12:33:13;;;;;;;18.90;12.20;;;;;;;0.70;77.55;100820.66;214014;1268;61348;-74
2024/01/20 12:38:06;;;;;;;17.60;11.40;;;;;;;0.79;77.68;100819.27;214039;1270;66171;-74
2024/01/20 12:43:00;;;;;;;15.40;11.30;;;;;;;0.91;77.46;100820.69;213991;1268;61279;-74
2024/01/20 12:47:53;;;;;;;20.30;11.50;;;;;;;0.91;77.07;100829.02;213939;1272;73362;-74
2024/01/20 12:52:47;;;;;;;18.90;10.20;;;;;;;0.80;77.20;100830.27;213899;1270;61412;-74
2024/01/20 12:57:40;;;;;;;15.60;11.30;;;;;;;0.65;76.87;100829.23;214019;1268;61283;-74
2024/01/20 13:02:33;;;;;;;15.20;10.50;;;;;;;0.49;76.83;100834.92;214014;1270;66269;-75
2024/01/20 13:07:26;;;;;;;20.40;11.90;;;;;;;0.35;77.28;100835.66;214014;1270;61291;-75
2024/01/20 13:12:19;;;;;;;16.40;10.90;;;;;;;0.27;77.42;100830.59;213813;1268;59917;-75
2024/01/20 13:17:13;;;;;;;21.30;13.00;;;;;;;0.22;77.45;100827.88;213930;1270;72598;-75
2024/01/20 13:22:06;;;;;;;16.40;12.10;;;;;;;0.20;77.78;100830.96;213982;1268;61299;-74
2024/01/20 13:26:59;;;;;;;16.70;11.70;;;;;;;0.20;77.72;100831.52;214073;1270;61269;-74
2024/01/20 13:31:52;;;;;;;20.60;12.00;;;;;;;0.19;77.57;100827.20;214059;1268;61264;-73
2024/01/20 13:36:44;;;;;;;19.20;11.80;;;;;;;0.18;77.64;100829.83;213873;1268;219001;-73
2024/01/20 13:41:37;;;;;;;22.90;13.70;;;;;;;0.20;77.67;100823.84;213987;1270;61358;-73
2024/01/20 13:46:30;;;;;;;24.40;13.00;;;;;;;0.26;77.58;100821.64;214062;1271;61399;-73
2024/01/20 13:51:24;;;;;;;22.10;12.90;;;;;;;0.32;77.95;100814.81;213968;1272;61293;-73
2024/01/20 13:56:17;;;;;;;22.90;13.40;;;;;;;0.26;78.50;100806.79;214080;1268;61255;-73
2024/01/20 14:01:10;;;;;;;23.10;13.10;;;;;;;0.16;79.14;100802.45;214065;1270;72416;-73
2024/01/20 14:06:03;;;;;;;23.60;14.40;;;;;;;0.07;81.18;100822.18;214012;1270;61327;-73
2024/01/20 14:10:56;;;;;;;20.40;13.30;;;;;;;-0.04;82.08;100828.70;214126;1268;61289;-73
2024/01/20 14:15:49;;;;;;;24.80;14.00;;;;;;;-0.15;82.28;100841.98;214041;1268;61322;-73
2024/01/20 14:20:42;;;;;;;21.50;14.90;;;;;;;-0.27;82.96;100843.41;214043;1272;61308;-75
2024/01/20 14:25:35;;;;;;;25.00;14.00;;;;;;;-0.35;83.25;100850.42;214064;1268;61681;-75
2024/01/20 14:30:28;;;;;;;23.50;13.80;;;;;;;-0.40;83.21;100859.36;213983;1268;72647;-74
2024/01/20 14:35:21;;;;;;;24.20;13.90;;;;;;;-0.43;83.30;100868.86;214041;1268;61419;-75
2024/01/20 14:40:14;;;;;;;22.20;13.80;;;;;;;-0.47;83.56;100873.23;214038;1268;61807;-75
2024/01/20 14:45:07;;;;;;;25.20;14.30;;;;;;;-0.51;84.24;100873.81;213910;1268;61128;-75
2024/01/20 14:50:02;;;;;;;22.10;13.90;;;;;;;-0.52;84.24;100873.91;214088;1268;61305;-75
2024/01/20 14:54:56;;;;;;;19.40;12.50;;;;;;;-0.52;85.12;100879.52;213977;1268;72925;-75
2024/01/20 14:59:51;;;;;;;26.70;15.40;;;;;;;-0.54;85.69;100879.54;214008;1268;61446;-74
2024/01/20 15:04:44;;;;;;;25.00;15.00;;;;;;;-0.57;85.62;100880.72;213979;1272;66866;-74
2024/01/20 15:09:37;;;;;;;24.10;14.00;;;;;;;-0.59;85.56;100887.91;213943;1269;61270;-75
2024/01/20 15:14:30;;;;;;;27.40;15.70;;;;;;;-0.62;85.72;100890.27;214034;1273;61380;-75
2024/01/20 15:19:22;;;;;;;21.70;14.20;;;;;;;-0.62;85.72;100899.45;214125;1271;61949;-74
2024/01/20 15:24:15;;;;;;;23.50;14.80;;;;;;;-0.63;85.99;100903.14;214090;1268;61298;-74
2024/01/20 15:29:10;;;;;;;23.30;15.00;;;;;;;-0.64;86.11;100900.57;214089;1268;61287;-74
2024/01/20 15:34:09;;;;;;;24.50;15.90;;;;;;;-0.64;86.68;100912.48;213996;1268;61292;-75
2024/01/20 15:39:03;;;;;;;21.70;14.90;;;;;;;-0.64;87.33;100918.09;213925;1270;73365;-74
2024/01/20 15:43:56;;;;;;;24.40;15.80;;;;;;;-0.64;87.54;100920.80;213989;1268;71447;-74
2024/01/20 15:48:49;;;;;;;24.90;14.50;;;;;;;-0.63;88.00;100920.70;214058;1268;61287;-74
2024/01/20 15:53:44;;;;;;;24.40;15.80;;;;;;;-0.63;88.34;100930.41;214069;1268;61279;-74
2024/01/20 15:58:37;;;;;;;24.80;15.30;;;;;;;-0.62;88.11;100940.52;214185;1268;61258;-74
2024/01/20 16:03:30;;;;;;;25.00;15.20;;;;;;;-0.59;88.14;100943.10;214051;1268;61438;-74
2024/01/20 16:08:23;;;;;;;28.70;16.50;;;;;;;-0.56;87.84;100946.84;214115;1270;61303;-74
2024/01/20 16:13:16;;;;;;;28.90;16.90;;;;;;;-0.55;87.60;100955.98;214239;1268;61245;-75
2024/01/20 16:18:09;;;;;;;26.00;15.40;;;;;;;-0.53;88.15;100953.70;214162;1268;61316;-74
2024/01/20 16:23:03;;;;;;;26.70;17.00;;;;;;;-0.51;88.08;100952.95;214127;1270;61256;-72
2024/01/20 16:27:58;;;;;;;28.10;17.00;;;;;;;-0.50;87.96;100959.03;213983;1268;75682;-72
2024/01/20 16:32:51;;;;;;;34.40;16.50;;;;;;;-0.49;87.71;100965.06;213760;1268;71501;-75
2024/01/20 16:37:43;;;;;;;27.30;17.30;;;;;;;-0.47;87.77;100966.37;213977;1268;61329;-73
2024/01/20 16:42:38;;;;;;;29.10;18.20;;;;;;;-0.45;87.58;100967.55;213992;1268;66867;-73
2024/01/20 16:47:31;;;;;;;27.50;16.40;;;;;;;-0.43;87.63;100964.60;214060;1272;61360;-72
2024/01/20 16:52:24;;;;;;;28.70;17.70;;;;;;;-0.41;87.34;100969.14;213986;1268;61622;-73
2024/01/20 16:57:19;;;;;;;32.50;17.50;;;;;;;-0.40;87.76;100976.52;213926;1269;71139;-73
2024/01/20 17:02:12;;;;;;;31.50;15.60;;;;;;;-0.40;87.71;100977.23;214058;1268;61290;-73
2024/01/20 17:07:05;;;;;;;30.80;17.10;;;;;;;-0.38;87.70;100990.11;213982;1268;68710;-73
2024/01/20 17:12:00;;;;;;;29.20;17.50;;;;;;;-0.36;87.79;100998.02;213964;1267;60988;-73
2024/01/20 17:16:53;;;;;;;26.50;16.60;;;;;;;-0.35;87.86;101001.52;213940;1268;73981;-73
2024/01/20 17:21:46;;;;;;;27.00;15.30;;;;;;;-0.33;87.61;101012.56;213936;1268;61261;-73
2024/01/20 17:26:39;;;;;;;30.10;16.30;;;;;;;-0.32;87.71;101019.05;213926;1268;61304;-72
2024/01/20 17:31:37;;;;;;;26.30;15.60;;;;;;;-0.31;87.64;101026.61;214042;1268;61341;-72
2024/01/20 17:36:30;;;;;;;27.40;17.80;;;;;;;-0.30;87.95;101029.79;214020;1268;61378;-72
2024/01/20 17:41:23;;;;;;;28.40;18.00;;;;;;;-0.28;87.94;101037.75;213986;1268;73491;-73
2024/01/20 17:46:16;;;;;;;26.20;17.70;;;;;;;-0.27;87.80;101044.47;213950;1268;61266;-72
2024/01/20 17:51:09;;;;;;;29.90;17.10;;;;;;;-0.25;87.85;101051.75;214012;1268;61495;-72
2024/01/20 17:56:03;;;;;;;25.70;15.90;;;;;;;-0.23;87.97;101058.88;213884;1268;61287;-73
2024/01/20 18:00:57;;;;;;;29.50;17.40;;;;;;;-0.21;87.70;101061.90;214158;1268;61261;-73
2024/01/20 18:05:50;;;;;;;30.80;16.50;;;;;;;-0.18;87.61;101069.23;214123;1268;73361;-73
2024/01/20 18:10:43;;;;;;;25.20;17.50;;;;;;;-0.17;87.66;101078.39;214105;1268;71171;-74
2024/01/20 18:15:36;;;;;;;29.20;16.50;;;;;;;-0.15;87.44;101080.15;213886;1268;61265;-74
2024/01/20 18:20:29;;;;;;;28.80;18.60;;;;;;;-0.14;87.70;101094.88;213697;1268;61408;-74
2024/01/20 18:25:23;;;;;;;25.30;16.60;;;;;;;-0.14;87.78;101100.52;213799;1269;61392;-73
2024/01/20 18:30:17;;;;;;;27.40;17.70;;;;;;;-0.14;87.45;101114.35;213817;1268;74489;-73
2024/01/20 18:35:11;;;;;;;25.60;17.60;;;;;;;-0.13;87.84;101116.46;213922;1268;72752;-72
2024/01/20 18:40:05;;;;;;;29.70;17.50;;;;;;;-0.12;87.82;101123.16;214042;1268;61346;-73
2024/01/20 18:44:58;;;;;;;33.00;18.50;;;;;;;-0.10;87.97;101131.33;213902;1268;67227;-74
2024/01/20 18:50:01;;;;;;;31.60;18.30;;;;;;;-0.07;87.74;101148.00;213863;1268;61451;-73
2024/01/20 18:54:54;;;;;;;26.30;17.60;;;;;;;-0.05;87.90;101166.56;213984;1270;74558;-73
2024/01/20 18:59:47;;;;;;;27.20;18.00;;;;;;;-0.03;87.93;101176.09;214065;1268;61362;-73
2024/01/20 19:04:40;;;;;;;28.90;15.90;;;;;;;-0.01;87.85;101185.96;213778;1268;61294;-73
2024/01/20 19:09:33;;;;;;;29.40;18.30;;;;;;;0.02;87.84;101194.48;213951;1268;61316;-73
2024/01/20 19:14:26;;;;;;;31.20;17.80;;;;;;;0.06;87.87;101206.45;213924;1268;61704;-72
2024/01/20 19:19:19;;;;;;;27.40;16.90;;;;;;;0.07;88.24;101223.40;213949;1267;61281;-72
2024/01/20 19:24:12;;;;;;;29.40;17.60;;;;;;;0.09;88.14;101234.13;213943;1268;61363;-73
2024/01/20 19:29:05;;;;;;;31.00;17.20;;;;;;;0.11;88.35;101242.27;214002;1270;61250;-72
2024/01/20 19:33:58;;;;;;;27.90;16.50;;;;;;;0.12;88.11;101256.67;213956;1269;61732;-72
2024/01/20 19:38:57;;;;;;;30.10;19.40;;;;;;;0.13;88.04;101255.86;213893;1268;61298;-76
2024/01/20 19:43:50;;;;;;;29.40;16.90;;;;;;;0.14;88.41;101257.88;213889;1268;74846;-74
2024/01/20 19:48:47;;;;;;;26.20;16.60;;;;;;;0.18;88.27;101270.36;213925;1268;71318;-73
2024/01/20 19:53:40;;;;;;;27.60;17.90;;;;;;;0.19;88.25;101275.53;213967;1270;61147;-73
2024/01/20 19:58:36;;;;;;;25.40;18.00;;;;;;;0.20;88.17;101284.83;214031;1267;61287;-73
2024/01/20 20:03:29;;;;;;;25.70;17.40;;;;;;;0.20;88.13;101288.23;213952;1270;61313;-74
2024/01/20 20:08:24;;;;;;;30.90;16.70;;;;;;;0.20;88.13;101296.24;213923;1268;61297;-74
2024/01/20 20:13:20;;;;;;;23.20;15.30;;;;;;;0.20;88.22;101308.53;213744;1273;73462;-73
2024/01/20 20:18:13;;;;;;;22.90;17.00;;;;;;;0.20;88.04;101318.40;213975;1268;61392;-72
2024/01/20 20:23:06;;;;;;;24.90;16.60;;;;;;;0.20;88.43;101322.70;214111;1268;66025;-72
2024/01/20 20:27:59;;;;;;;24.00;15.70;;;;;;;0.21;88.55;101329.40;213987;1268;61874;-72
2024/01/20 20:32:52;;;;;;;21.40;14.70;;;;;;;0.21;88.58;101338.11;213971;1268;61405;-72
2024/01/20 20:37:45;;;;;;;22.80;14.50;;;;;;;0.21;88.57;101347.48;214020;1268;61265;-72
2024/01/20 20:42:38;;;;;;;22.80;13.70;;;;;;;0.22;88.25;101353.33;213934;1268;61377;-72
2024/01/20 20:47:32;;;;;;;15.90;11.50;;;;;;;0.21;88.57;101362.33;213963;1268;61281;-72
2024/01/20 20:52:29;;;;;;;21.10;13.90;;;;;;;0.22;88.47;101372.41;214062;1272;61375;-72
2024/01/20 20:57:22;;;;;;;20.10;14.10;;;;;;;0.22;88.51;101384.20;214018;1268;74648;-72
2024/01/20 21:02:15;;;;;;;24.10;12.50;;;;;;;0.23;88.42;101394.84;214014;1268;61304;-72
2024/01/20 21:07:08;;;;;;;17.40;12.80;;;;;;;0.23;88.73;101406.61;213948;1268;61303;-72
2024/01/20 21:12:01;;;;;;;18.20;12.00;;;;;;;0.24;88.49;101414.52;213936;1268;61270;-72
2024/01/20 21:16:53;;;;;;;21.00;11.60;;;;;;;0.26;88.73;101422.64;213993;1268;61294;-72
2024/01/20 21:21:47;;;;;;;17.60;12.20;;;;;;;0.26;88.64;101424.90;213990;1268;61760;-72
2024/01/20 21:26:40;;;;;;;18.10;12.10;;;;;;;0.27;88.65;101434.54;213950;1268;71425;-72
2024/01/20 21:31:33;;;;;;;20.60;12.90;;;;;;;0.29;88.67;101446.06;213972;1268;61803;-72
2024/01/20 21:36:26;;;;;;;21.70;13.60;;;;;;;0.28;88.85;101456.08;213954;1268;61303;-72
2024/01/20 21:41:19;;;;;;;18.90;13.10;;;;;;;0.28;88.91;101462.05;214014;1270;61681;-72
2024/01/20 21:46:13;;;;;;;19.10;13.80;;;;;;;0.29;88.80;101477.95;213971;1268;61307;-72
2024/01/20 21:51:06;;;;;;;17.80;12.80;;;;;;;0.29;88.84;101475.55;213876;1268;71642;-72
2024/01/20 21:55:58;;;;;;;17.90;12.70;;;;;;;0.29;88.91;101486.34;214069;1268;61210;-72
2024/01/20 22:00:51;;;;;;;17.50;12.40;;;;;;;0.30;89.14;101499.72;213982;1271;61277;-72
2024/01/20 22:05:44;;;;;;;20.50;13.80;;;;;;;0.31;89.10;101507.06;214031;1270;59973;-72